createdAt,value
2018-03-04T00:01:46.289Z,61.93
2018-03-04T00:04:13.724Z,71.60
2018-03-04T00:06:41.926Z,62.17
2018-03-04T00:09:09.364Z,62.37
2018-03-04T00:11:36.800Z,73.80
2018-03-04T00:14:05.004Z,68.23
2018-03-04T00:16:32.435Z,69.73
2018-03-04T00:19:00.661Z,60.23
2018-03-04T00:21:28.093Z,67.63
2018-03-04T00:23:55.584Z,62.27
2018-03-04T00:26:23.049Z,64.37
2018-03-04T00:28:50.489Z,62.00
2018-03-04T00:31:17.926Z,60.20
2018-03-04T00:33:45.351Z,68.90
2018-03-04T00:36:13.586Z,71.47
2018-03-04T00:38:41.021Z,62.80
2018-03-04T00:41:08.445Z,65.30
2018-03-04T00:43:36.643Z,75.27
2018-03-04T00:46:04.120Z,50.70
2018-03-04T00:48:31.576Z,67.40
2018-03-04T00:50:59.002Z,64.63
2018-03-04T00:53:27.225Z,68.57
2018-03-04T00:55:54.768Z,72.03
2018-03-04T00:58:22.203Z,68.80
2018-03-04T01:00:49.628Z,67.63
2018-03-04T01:03:17.863Z,76.47
2018-03-04T01:05:45.293Z,61.90
2018-03-04T01:08:12.741Z,66.47
2018-03-04T01:10:40.927Z,77.37
2018-03-04T01:13:08.370Z,68.37
2018-03-04T01:15:36.595Z,63.90
2018-03-04T01:18:04.035Z,73.63
2018-03-04T01:20:31.461Z,68.60
2018-03-04T01:22:59.668Z,63.47
2018-03-04T01:25:27.114Z,68.60
2018-03-04T01:27:54.546Z,72.43
2018-03-04T01:30:22.740Z,72.37
2018-03-04T01:32:50.230Z,74.33
2018-03-04T01:35:17.685Z,70.93
2018-03-04T01:37:45.125Z,70.40
2018-03-04T01:40:12.556Z,63.20
2018-03-04T01:42:40.751Z,74.37
2018-03-04T01:45:08.188Z,62.77
2018-03-04T01:47:35.693Z,67.57
2018-03-04T01:50:03.147Z,63.37
2018-03-04T01:52:30.602Z,62.17
2018-03-04T01:54:58.797Z,65.77
2018-03-04T01:57:26.232Z,71.40
2018-03-04T01:59:53.693Z,64.20
2018-03-04T02:02:21.119Z,67.10
2018-03-04T02:04:48.593Z,67.27
2018-03-04T02:07:16.013Z,69.80
2018-03-04T02:09:44.230Z,63.80
2018-03-04T02:12:11.706Z,64.17
2018-03-04T02:14:39.165Z,64.00
2018-03-04T02:17:06.602Z,67.80
2018-03-04T02:19:34.051Z,66.17
2018-03-04T02:22:01.520Z,66.47
2018-03-04T02:24:28.958Z,61.00
2018-03-04T02:26:56.436Z,73.00
2018-03-04T02:29:23.891Z,67.50
2018-03-04T02:31:51.328Z,61.70
2018-03-04T02:34:18.755Z,68.33
2018-03-04T02:36:46.953Z,69.90
2018-03-04T02:39:14.388Z,77.00
2018-03-04T02:41:42.604Z,62.97
2018-03-04T02:44:10.030Z,69.43
2018-03-04T02:46:38.215Z,64.20
2018-03-04T02:49:05.679Z,69.10
2018-03-04T02:51:33.117Z,75.40
2018-03-04T02:54:01.311Z,61.63
2018-03-04T02:56:28.758Z,75.53
2018-03-04T02:58:56.959Z,69.40
2018-03-04T03:01:24.393Z,72.47
2018-03-04T03:03:51.811Z,63.27
2018-03-04T03:06:19.236Z,67.73
2018-03-04T03:08:46.667Z,64.93
2018-03-04T03:11:14.103Z,69.90
2018-03-04T03:13:42.302Z,64.13
2018-03-04T03:16:09.736Z,64.70
2018-03-04T03:18:37.970Z,60.80
2018-03-04T03:21:05.403Z,63.87
2018-03-04T03:23:32.838Z,69.10
2018-03-04T03:26:00.324Z,72.40
2018-03-04T03:28:27.756Z,63.50
2018-03-04T03:30:55.201Z,69.47
2018-03-04T03:33:23.397Z,62.00
2018-03-04T03:35:50.842Z,71.47
2018-03-04T03:38:18.259Z,68.27
2018-03-04T03:40:45.696Z,67.70
2018-03-04T03:43:13.120Z,74.83
2018-03-04T03:45:40.563Z,66.90
2018-03-04T03:48:08.762Z,71.33
2018-03-04T03:50:36.199Z,64.03
2018-03-04T03:53:03.632Z,72.63
2018-03-04T03:55:31.054Z,71.63
2018-03-04T03:57:58.478Z,74.93
2018-03-04T04:00:25.922Z,69.20
2018-03-04T04:02:54.111Z,72.13
2018-03-04T04:05:21.552Z,71.50
2018-03-04T04:07:49.743Z,73.77
2018-03-04T04:10:17.178Z,68.23
2018-03-04T04:12:45.367Z,73.43
2018-03-04T04:15:12.844Z,81.90
2018-03-04T04:17:40.311Z,64.97
2018-03-04T04:20:07.740Z,64.50
2018-03-04T04:22:35.167Z,70.80
2018-03-04T04:25:02.592Z,74.83
2018-03-04T04:27:30.032Z,68.90
2018-03-04T04:29:57.495Z,78.80
2018-03-04T04:32:24.930Z,72.10
2018-03-04T04:34:52.352Z,72.17
2018-03-04T04:37:19.810Z,63.10
2018-03-04T04:39:47.333Z,69.90
2018-03-04T04:42:14.794Z,72.37
2018-03-04T04:44:42.215Z,66.47
2018-03-04T04:47:09.670Z,76.47
2018-03-04T04:49:37.847Z,69.23
2018-03-04T04:52:05.289Z,67.57
2018-03-04T04:54:33.502Z,77.37
2018-03-04T04:57:00.943Z,64.87
2018-03-04T04:59:28.364Z,71.77
2018-03-04T05:01:56.595Z,73.80
2018-03-04T05:04:24.029Z,67.37
2018-03-04T05:06:51.460Z,70.60
2018-03-04T05:09:19.656Z,69.53
2018-03-04T05:11:47.101Z,77.07
2018-03-04T05:14:15.295Z,68.77
2018-03-04T05:16:42.728Z,66.73
2018-03-04T05:19:10.915Z,82.50
2018-03-04T05:21:38.347Z,79.30
2018-03-04T05:24:06.561Z,76.00
2018-03-04T05:26:33.990Z,77.40
2018-03-04T05:29:02.188Z,75.53
2018-03-04T05:31:29.620Z,68.80
2018-03-04T05:33:57.834Z,70.27
2018-03-04T05:36:25.264Z,75.57
2018-03-04T05:38:53.451Z,67.60
2018-03-04T05:41:20.905Z,66.07
2018-03-04T05:43:48.326Z,66.83
2018-03-04T05:46:15.756Z,67.87
2018-03-04T05:48:43.204Z,70.03
2018-03-04T05:51:10.635Z,68.20
2018-03-04T05:53:38.067Z,70.63
2018-03-04T05:56:06.261Z,68.63
2018-03-04T05:58:33.691Z,77.30
2018-03-04T06:01:01.899Z,67.10
2018-03-04T06:03:29.348Z,67.80
2018-03-04T06:05:56.848Z,73.25
2018-03-04T06:08:24.281Z,65.00
2018-03-04T06:10:51.709Z,60.43
2018-03-04T06:13:19.906Z,62.43
2018-03-04T06:15:47.327Z,78.40
2018-03-04T06:18:14.838Z,71.53
2018-03-04T06:20:42.264Z,68.83
2018-03-04T06:23:10.477Z,61.00
2018-03-04T06:25:37.931Z,62.83
2018-03-04T06:28:05.389Z,64.40
2018-03-04T06:30:32.812Z,64.03
2018-03-04T06:33:01.018Z,70.93
2018-03-04T06:35:28.447Z,63.90
2018-03-04T06:37:55.880Z,64.20
2018-03-04T06:40:24.071Z,67.70
2018-03-04T06:42:52.269Z,62.27
2018-03-04T06:45:19.685Z,70.33
2018-03-04T06:47:47.879Z,67.83
2018-03-04T06:50:15.312Z,67.80
2018-03-04T06:52:42.756Z,78.43
2018-03-04T06:55:10.187Z,74.50
2018-03-04T06:57:37.624Z,68.63
2018-03-04T07:00:05.051Z,67.30
2018-03-04T07:02:33.248Z,62.23
2018-03-04T07:05:00.671Z,72.23
2018-03-04T07:07:28.102Z,68.80
2018-03-04T07:09:55.540Z,65.07
2018-03-04T07:12:22.986Z,63.37
2018-03-04T07:14:50.419Z,66.40
2018-03-04T07:17:18.619Z,65.93
2018-03-04T07:19:46.048Z,69.40
2018-03-04T07:22:14.260Z,66.33
2018-03-04T07:24:41.704Z,66.77
2018-03-04T07:27:09.141Z,79.23
2018-03-04T07:29:37.355Z,70.90
2018-03-04T07:32:04.788Z,69.10
2018-03-04T07:34:32.229Z,66.60
2018-03-04T07:37:00.420Z,68.53
2018-03-04T07:39:27.856Z,64.37
2018-03-04T07:41:56.076Z,74.53
2018-03-04T07:44:23.508Z,59.70
2018-03-04T07:46:50.936Z,66.40
2018-03-04T07:49:19.148Z,73.83
2018-03-04T07:51:46.573Z,67.67
2018-03-04T07:54:14.780Z,65.60
2018-03-04T07:56:42.211Z,74.80
2018-03-04T07:59:10.428Z,62.97
2018-03-04T08:01:37.863Z,60.00
2018-03-04T08:04:05.315Z,67.73
2018-03-04T08:06:32.758Z,62.20
2018-03-04T08:09:00.974Z,63.87
2018-03-04T08:11:28.407Z,62.50
2018-03-04T08:13:55.843Z,66.30
2018-03-04T08:16:24.039Z,62.60
2018-03-04T08:18:51.474Z,62.03
2018-03-04T08:21:19.679Z,67.43
2018-03-04T08:23:47.111Z,61.03
2018-03-04T08:26:27.041Z,60.00
2018-03-04T08:28:54.487Z,61.17
2018-03-04T08:31:21.921Z,63.13
2018-03-04T08:33:49.347Z,65.33
2018-03-04T08:36:16.786Z,60.97
2018-03-04T08:38:44.992Z,60.80
2018-03-04T08:41:12.430Z,70.67
2018-03-04T08:43:39.870Z,65.33
2018-03-04T08:46:08.092Z,62.03
2018-03-04T08:48:35.518Z,67.90
2018-03-04T08:51:03.734Z,55.60
2018-03-04T08:53:31.165Z,63.67
2018-03-04T08:55:58.614Z,56.00
2018-03-04T08:58:26.040Z,62.53
2018-03-04T09:00:53.480Z,55.03
2018-03-04T09:03:20.917Z,60.67
2018-03-04T09:05:48.350Z,59.97
2018-03-04T09:08:15.784Z,58.93
2018-03-04T09:10:43.976Z,52.67
2018-03-04T09:13:11.422Z,54.80
2018-03-04T09:15:39.694Z,50.13
2018-03-04T09:18:07.926Z,59.13
2018-03-04T09:20:35.430Z,47.27
2018-03-04T09:23:03.639Z,61.63
2018-03-04T09:25:31.095Z,57.93
2018-03-04T09:27:58.528Z,58.57
2018-03-04T09:30:26.819Z,47.80
2018-03-04T09:32:54.345Z,57.00
2018-03-04T09:35:22.559Z,47.13
2018-03-04T09:37:49.999Z,63.33
2018-03-04T09:40:17.447Z,53.00
2018-03-04T09:42:45.769Z,56.43
2018-03-04T09:45:13.214Z,53.87
2018-03-04T09:47:40.654Z,49.43
2018-03-04T09:50:08.101Z,54.73
2018-03-04T09:52:35.560Z,53.37
2018-03-04T09:55:03.014Z,48.87
2018-03-04T09:57:31.219Z,58.40
2018-03-04T09:59:58.674Z,55.10
2018-03-04T10:02:26.134Z,49.03
2018-03-04T10:04:53.598Z,50.13
2018-03-04T10:07:21.023Z,65.30
2018-03-04T10:09:48.469Z,56.67
2018-03-04T10:12:16.690Z,57.80
2018-03-04T10:14:44.119Z,57.97
2018-03-04T10:17:11.560Z,52.20
2018-03-04T10:19:39.766Z,59.77
2018-03-04T10:22:07.213Z,59.50
2018-03-04T10:24:34.658Z,64.03
2018-03-04T10:27:02.111Z,69.30
2018-03-04T10:29:30.308Z,53.97
2018-03-04T10:31:57.792Z,64.47
2018-03-04T10:34:25.238Z,53.83
2018-03-04T10:36:52.659Z,62.17
2018-03-04T10:39:20.102Z,56.90
2018-03-04T10:41:48.382Z,59.87
2018-03-04T10:44:16.588Z,76.10
2018-03-04T10:46:44.012Z,61.20
2018-03-04T10:49:12.220Z,50.97
2018-03-04T10:51:39.651Z,64.83
2018-03-04T10:54:07.095Z,51.10
2018-03-04T10:56:35.315Z,53.00
2018-03-04T10:59:02.754Z,49.87
2018-03-04T11:01:34.911Z,47.67
2018-03-04T11:04:03.124Z,56.90
2018-03-04T11:06:30.573Z,42.20
2018-03-04T11:08:58.000Z,44.77
2018-03-04T11:11:26.200Z,46.07
2018-03-04T11:13:53.698Z,50.60
2018-03-04T11:16:21.149Z,49.50
2018-03-04T11:18:48.578Z,49.90
2018-03-04T11:21:16.022Z,44.00
2018-03-04T11:23:43.452Z,52.63
2018-03-04T11:26:11.666Z,51.40
2018-03-04T11:28:39.170Z,42.23
2018-03-04T11:31:06.560Z,49.53
2018-03-04T11:33:34.091Z,46.53
2018-03-04T11:36:01.538Z,51.30
2018-03-04T11:38:29.086Z,56.97
2018-03-04T11:40:56.580Z,50.57
2018-03-04T11:43:24.858Z,49.30
2018-03-04T11:45:53.305Z,45.37
2018-03-04T11:48:20.912Z,55.07
2018-03-04T11:50:49.170Z,45.07
2018-03-04T11:53:16.746Z,45.07
2018-03-04T11:55:45.020Z,50.47
2018-03-04T11:58:13.317Z,44.30
2018-03-04T12:00:40.755Z,43.17
2018-03-04T12:03:08.989Z,44.10
2018-03-04T12:05:36.426Z,42.00
2018-03-04T12:08:04.912Z,44.30
2018-03-04T12:10:32.437Z,50.03
2018-03-04T12:13:00.790Z,48.27
2018-03-04T12:15:28.217Z,42.27
2018-03-04T12:17:55.844Z,46.93
2018-03-04T12:20:23.262Z,46.77
2018-03-04T12:22:51.482Z,43.50
2018-03-04T12:25:18.938Z,45.20
2018-03-04T12:27:46.393Z,36.27
2018-03-04T12:30:13.820Z,44.03
2018-03-04T12:32:41.260Z,42.03
2018-03-04T12:35:08.706Z,44.40
2018-03-04T12:37:36.153Z,44.47
2018-03-04T12:40:03.603Z,51.30
2018-03-04T12:42:31.050Z,45.00
2018-03-04T12:44:58.496Z,40.77
2018-03-04T12:47:25.954Z,42.03
2018-03-04T12:49:53.389Z,44.37
2018-03-04T12:52:20.846Z,44.87
2018-03-04T12:54:48.292Z,48.17
2018-03-04T12:57:16.520Z,52.10
2018-03-04T12:59:43.957Z,46.43
2018-03-04T13:02:11.426Z,40.67
2018-03-04T13:04:38.868Z,42.83
2018-03-04T13:07:06.303Z,46.93
2018-03-04T13:09:33.744Z,42.80
2018-03-04T13:12:01.952Z,41.90
2018-03-04T13:14:29.414Z,45.73
2018-03-04T13:16:56.862Z,44.30
2018-03-04T13:19:24.319Z,44.33
2018-03-04T13:21:51.763Z,42.30
2018-03-04T13:24:19.969Z,37.97
2018-03-04T13:26:47.409Z,34.77
2018-03-04T13:29:14.862Z,38.63
2018-03-04T13:31:42.314Z,36.17
2018-03-04T13:34:09.761Z,39.80
2018-03-04T13:36:37.975Z,46.70
2018-03-04T13:39:05.423Z,33.00
2018-03-04T13:41:32.848Z,41.60
2018-03-04T13:44:01.084Z,30.90
2018-03-04T13:46:28.537Z,37.23
2018-03-04T13:48:55.948Z,38.43
2018-03-04T13:51:23.380Z,38.30
2018-03-04T13:53:51.592Z,33.63
2018-03-04T13:56:19.020Z,32.57
2018-03-04T13:58:47.283Z,32.23
2018-03-04T14:01:14.713Z,30.30
2018-03-04T14:03:42.154Z,31.43
2018-03-04T14:06:09.593Z,34.10
2018-03-04T14:08:37.052Z,28.17
2018-03-04T14:11:04.480Z,33.93
2018-03-04T14:13:32.699Z,31.90
2018-03-04T14:16:00.152Z,29.33
2018-03-04T14:18:27.620Z,31.83
2018-03-04T14:20:55.062Z,39.03
2018-03-04T14:23:22.499Z,32.23
2018-03-04T14:25:50.707Z,32.57
2018-03-04T14:28:19.183Z,35.43
2018-03-04T14:30:46.622Z,35.17
2018-03-04T14:33:14.053Z,35.07
2018-03-04T14:35:42.275Z,33.80
2018-03-04T14:38:09.708Z,28.50
2018-03-04T14:40:37.147Z,27.97
2018-03-04T14:43:05.361Z,28.87
2018-03-04T14:45:32.804Z,31.03
2018-03-04T14:48:00.241Z,27.50
2018-03-04T14:50:28.458Z,30.90
2018-03-04T14:52:55.928Z,39.10
2018-03-04T14:55:23.329Z,30.90
2018-03-04T14:57:51.524Z,41.63
2018-03-04T15:00:18.960Z,33.73
2018-03-04T15:02:47.157Z,35.73
2018-03-04T15:05:14.601Z,36.67
2018-03-04T15:07:42.796Z,34.43
2018-03-04T15:10:10.249Z,32.63
2018-03-04T15:12:37.745Z,38.00
2018-03-04T15:15:05.141Z,35.03
2018-03-04T15:17:34.210Z,36.47
2018-03-04T15:20:01.702Z,36.60
2018-03-04T15:22:29.108Z,38.73
2018-03-04T15:24:56.570Z,31.20
2018-03-04T15:27:24.015Z,38.87
2018-03-04T15:29:51.448Z,39.70
2018-03-04T15:32:18.895Z,39.77
2018-03-04T15:34:46.343Z,40.80
2018-03-04T15:37:14.550Z,38.90
2018-03-04T15:39:41.994Z,42.47
2018-03-04T15:42:09.436Z,40.07
2018-03-04T15:44:37.642Z,41.20
2018-03-04T15:47:05.081Z,46.07
2018-03-04T15:49:32.508Z,37.20
2018-03-04T15:52:00.708Z,45.43
2018-03-04T15:54:28.149Z,42.23
2018-03-04T15:56:56.358Z,37.97
2018-03-04T15:59:23.812Z,37.63
2018-03-04T16:01:51.243Z,38.67
2018-03-04T16:04:18.672Z,35.93
2018-03-04T16:06:46.118Z,39.10
2018-03-04T16:09:14.368Z,43.07
2018-03-04T16:11:41.822Z,38.50
2018-03-04T16:14:09.276Z,44.57
2018-03-04T16:16:36.700Z,37.17
2018-03-04T16:19:04.906Z,37.10
2018-03-04T16:21:32.352Z,36.37
2018-03-04T16:23:59.780Z,35.00
2018-03-04T16:26:27.994Z,34.43
2018-03-04T16:28:55.426Z,35.07
2018-03-04T16:31:23.634Z,34.13
2018-03-04T16:33:51.071Z,34.73
2018-03-04T16:36:18.504Z,38.37
2018-03-04T16:38:46.708Z,38.63
2018-03-04T16:41:14.166Z,40.10
2018-03-04T16:43:41.592Z,35.07
2018-03-04T16:46:09.799Z,36.50
2018-03-04T16:48:37.235Z,46.47
2018-03-04T16:51:05.431Z,33.33
2018-03-04T16:53:32.865Z,39.80
2018-03-04T16:56:01.087Z,42.83
2018-03-04T16:58:28.550Z,38.77
2018-03-04T17:00:55.947Z,42.80
2018-03-04T17:03:24.144Z,41.80
2018-03-04T17:05:51.599Z,46.63
2018-03-04T17:08:19.033Z,41.70
2018-03-04T17:10:47.248Z,37.03
2018-03-04T17:13:14.671Z,35.10
2018-03-04T17:15:42.891Z,33.53
2018-03-04T17:18:10.316Z,35.70
2018-03-04T17:20:37.750Z,29.10
2018-03-04T17:23:05.956Z,33.60
2018-03-04T17:25:33.407Z,35.13
2018-03-04T17:28:00.836Z,38.67
2018-03-04T17:30:28.283Z,39.23
2018-03-04T17:32:55.735Z,41.47
2018-03-04T17:35:23.163Z,38.83
2018-03-04T17:37:50.621Z,41.47
2018-03-04T17:40:18.070Z,45.97
2018-03-04T17:42:45.541Z,41.90
2018-03-04T17:45:12.973Z,37.20
2018-03-04T17:47:40.400Z,35.97
2018-03-04T17:50:08.599Z,35.10
2018-03-04T17:52:36.056Z,39.30
2018-03-04T17:55:03.492Z,38.83
